createdAt,value
2018-02-23T00:00:35.706Z,25.10
2018-02-23T00:03:03.880Z,25.00
2018-02-23T00:05:32.049Z,25.10
2018-02-23T00:08:00.205Z,25.10
2018-02-23T00:10:28.343Z,25.10
2018-02-23T00:12:57.260Z,25.10
2018-02-23T00:15:25.413Z,24.80
2018-02-23T00:17:54.443Z,25.10
2018-02-23T00:20:22.639Z,25.10
2018-02-23T00:22:50.873Z,25.10
2018-02-23T00:25:19.045Z,25.10
2018-02-23T00:27:47.294Z,25.10
2018-02-23T00:30:16.204Z,25.10
2018-02-23T00:32:44.351Z,25.10
2018-02-23T00:35:13.370Z,25.10
2018-02-23T00:37:41.527Z,25.10
2018-02-23T00:40:09.708Z,25.10
2018-02-23T00:42:37.854Z,25.00
2018-02-23T00:45:06.036Z,25.10
2018-02-23T00:47:34.328Z,25.00
2018-02-23T00:50:02.490Z,24.90
2018-02-23T00:52:31.469Z,25.00
2018-02-23T00:55:00.398Z,25.00
2018-02-23T00:57:28.564Z,24.90
2018-02-23T00:59:56.726Z,24.90
2018-02-23T01:02:24.917Z,24.90
2018-02-23T01:04:53.175Z,24.90
2018-02-23T01:07:21.446Z,24.90
2018-02-23T01:09:50.430Z,24.80
2018-02-23T01:12:19.406Z,24.90
2018-02-23T01:14:48.354Z,24.90
2018-02-23T01:17:16.502Z,24.90
2018-02-23T01:19:44.683Z,25.00
2018-02-23T01:22:12.822Z,24.90
2018-02-23T01:24:41.774Z,24.90
2018-02-23T01:27:09.948Z,24.90
2018-02-23T01:29:38.102Z,24.90
2018-02-23T01:32:06.256Z,24.90
2018-02-23T01:34:34.393Z,24.80
2018-02-23T01:37:02.576Z,24.90
2018-02-23T01:39:30.794Z,24.90
2018-02-23T01:41:58.968Z,24.90
2018-02-23T01:44:27.112Z,24.90
2018-02-23T01:46:56.067Z,24.90
2018-02-23T01:49:24.243Z,24.90
2018-02-23T01:51:52.538Z,24.90
2018-02-23T01:54:21.456Z,24.90
2018-02-23T01:56:49.606Z,24.90
2018-02-23T01:59:18.550Z,24.90
2018-02-23T02:01:46.705Z,24.80
2018-02-23T02:04:14.850Z,24.80
2018-02-23T02:06:43.772Z,24.90
2018-02-23T02:09:11.918Z,24.90
2018-02-23T02:11:40.395Z,24.90
2018-02-23T02:14:08.565Z,24.90
2018-02-23T02:16:36.723Z,24.90
2018-02-23T02:19:05.699Z,24.70
2018-02-23T02:21:33.854Z,24.70
2018-02-23T02:24:02.026Z,24.70
2018-02-23T02:26:30.206Z,24.70
2018-02-23T02:28:58.383Z,24.70
2018-02-23T02:31:26.527Z,24.70
2018-02-23T02:33:54.696Z,24.70
2018-02-23T02:36:22.902Z,24.70
2018-02-23T02:38:51.058Z,24.60
2018-02-23T02:41:19.208Z,24.70
2018-02-23T02:43:48.199Z,25.20
2018-02-23T02:46:16.443Z,24.60
2018-02-23T02:48:45.367Z,24.70
2018-02-23T02:51:13.574Z,24.70
2018-02-23T02:53:41.735Z,24.60
2018-02-23T02:56:09.893Z,24.70
2018-02-23T02:58:38.099Z,24.70
2018-02-23T03:01:06.320Z,24.70
2018-02-23T03:03:34.545Z,24.70
2018-02-23T03:06:02.839Z,24.70
2018-02-23T03:08:30.927Z,24.70
2018-02-23T03:10:59.845Z,24.80
2018-02-23T03:13:27.994Z,24.70
2018-02-23T03:15:56.180Z,24.70
2018-02-23T03:18:24.333Z,24.80
2018-02-23T03:20:53.328Z,24.70
2018-02-23T03:23:22.398Z,24.70
2018-02-23T03:25:50.609Z,24.70
2018-02-23T03:28:18.973Z,24.70
2018-02-23T03:30:47.892Z,24.70
2018-02-23T03:33:16.039Z,24.70
2018-02-23T03:35:44.951Z,24.70
2018-02-23T03:38:13.089Z,24.70
2018-02-23T03:40:42.014Z,24.70
2018-02-23T03:43:10.175Z,24.70
2018-02-23T03:45:38.373Z,24.70
2018-02-23T03:48:06.522Z,24.60
2018-02-23T03:50:34.677Z,24.60
2018-02-23T03:53:03.603Z,24.60
2018-02-23T03:55:31.778Z,24.60
2018-02-23T03:57:59.940Z,24.70
2018-02-23T04:00:28.138Z,24.70
2018-02-23T04:02:56.293Z,24.60
2018-02-23T04:05:25.266Z,24.60
2018-02-23T04:07:53.455Z,24.60
2018-02-23T04:10:21.798Z,24.60
2018-02-23T04:12:50.751Z,24.50
2018-02-23T04:15:18.996Z,24.50
2018-02-23T04:17:47.149Z,24.50
2018-02-23T04:20:15.332Z,24.50
2018-02-23T04:22:43.493Z,24.40
2018-02-23T04:25:11.711Z,24.40
2018-02-23T04:27:39.866Z,24.40
2018-02-23T04:30:08.013Z,24.30
2018-02-23T04:32:36.203Z,24.40
2018-02-23T04:35:04.387Z,24.20
2018-02-23T04:37:32.660Z,24.00
2018-02-23T04:40:00.894Z,24.10
2018-02-23T04:42:29.906Z,24.00
2018-02-23T04:44:58.098Z,24.00
2018-02-23T04:47:26.245Z,23.90
2018-02-23T04:49:55.233Z,23.70
2018-02-23T04:52:24.133Z,23.70
2018-02-23T04:54:52.330Z,23.70
2018-02-23T04:57:20.478Z,23.70
2018-02-23T04:59:48.622Z,23.70
2018-02-23T05:02:16.794Z,23.80
2018-02-23T05:04:46.572Z,23.80
2018-02-23T05:07:14.723Z,23.50
2018-02-23T05:09:42.889Z,23.50
2018-02-23T05:12:11.086Z,23.40
2018-02-23T05:14:39.258Z,23.40
2018-02-23T05:17:07.475Z,23.20
2018-02-23T05:19:36.426Z,23.10
2018-02-23T05:22:04.563Z,23.10
2018-02-23T05:24:32.713Z,23.00
2018-02-23T05:27:01.702Z,23.10
2018-02-23T05:29:30.688Z,23.00
2018-02-23T05:31:58.925Z,22.90
2018-02-23T05:34:27.175Z,22.90
2018-02-23T05:36:55.382Z,22.90
2018-02-23T05:39:23.663Z,22.70
2018-02-23T05:41:51.810Z,22.70
2018-02-23T05:44:19.953Z,22.60
2018-02-23T05:46:49.022Z,22.60
2018-02-23T05:49:17.180Z,22.50
2018-02-23T05:51:45.330Z,22.60
2018-02-23T05:54:13.494Z,22.60
2018-02-23T05:56:41.677Z,22.50
2018-02-23T05:59:09.837Z,22.60
2018-02-23T06:01:38.002Z,22.50
2018-02-23T06:04:06.166Z,22.50
2018-02-23T06:06:34.352Z,22.50
2018-02-23T06:09:02.535Z,22.50
2018-02-23T06:11:30.716Z,22.40
2018-02-23T06:13:59.701Z,22.40
2018-02-23T06:16:27.854Z,22.40
2018-02-23T06:18:58.483Z,22.40
2018-02-23T06:21:26.676Z,22.40
2018-02-23T06:23:54.914Z,22.40
2018-02-23T06:26:23.178Z,22.30
2018-02-23T06:28:52.129Z,22.20
2018-02-23T06:31:20.366Z,22.20
2018-02-23T06:33:48.598Z,22.20
2018-02-23T06:36:16.856Z,22.20
2018-02-23T06:38:45.039Z,22.10
2018-02-23T06:41:13.404Z,22.10
2018-02-23T06:43:41.551Z,22.10
2018-02-23T06:46:09.691Z,22.00
2018-02-23T06:48:38.632Z,22.00
2018-02-23T06:51:06.841Z,21.90
2018-02-23T06:53:35.047Z,21.90
2018-02-23T06:56:03.187Z,21.90
2018-02-23T06:58:31.372Z,21.80
2018-02-23T07:01:00.320Z,21.90
2018-02-23T07:03:28.494Z,21.80
2018-02-23T07:05:56.649Z,21.90
2018-02-23T07:08:24.824Z,21.80
2018-02-23T07:10:53.061Z,21.80
2018-02-23T07:13:21.223Z,21.80
2018-02-23T07:15:50.189Z,21.80
2018-02-23T07:18:18.335Z,21.80
2018-02-23T07:20:46.492Z,21.80
2018-02-23T07:23:15.503Z,21.90
2018-02-23T07:25:44.594Z,21.80
2018-02-23T07:28:12.794Z,21.90
2018-02-23T07:30:40.970Z,21.90
2018-02-23T07:33:09.147Z,21.80
2018-02-23T07:35:37.314Z,21.80
2018-02-23T07:38:05.505Z,21.80
2018-02-23T07:40:33.665Z,21.70
2018-02-23T07:43:01.823Z,21.70
2018-02-23T07:45:30.170Z,21.70
2018-02-23T07:47:58.612Z,22.20
2018-02-23T07:50:27.037Z,22.10
2018-02-23T07:55:29.806Z,21.50
2018-02-23T07:57:58.912Z,21.30
2018-02-23T08:00:27.956Z,21.40
2018-02-23T08:02:56.160Z,21.30
2018-02-23T08:05:25.199Z,21.30
2018-02-23T08:07:53.452Z,21.30
2018-02-23T08:10:21.703Z,21.30
2018-02-23T08:12:50.608Z,21.20
2018-02-23T08:15:18.859Z,21.20
2018-02-23T08:17:47.012Z,21.20
2018-02-23T08:20:15.251Z,21.10
2018-02-23T08:22:43.406Z,21.10
2018-02-23T08:25:11.620Z,21.10
2018-02-23T08:27:39.813Z,21.10
2018-02-23T08:30:08.111Z,20.90
2018-02-23T08:32:36.289Z,20.90
2018-02-23T08:35:05.296Z,20.60
2018-02-23T08:37:33.544Z,20.50
2018-02-23T08:40:01.789Z,20.80
2018-02-23T08:42:30.012Z,20.80
2018-02-23T08:44:58.324Z,20.70
2018-02-23T08:47:26.511Z,20.80
2018-02-23T08:49:54.743Z,20.70
2018-02-23T08:52:22.888Z,20.50
2018-02-23T08:54:51.823Z,19.80
2018-02-23T08:57:19.998Z,20.10
2018-02-23T08:59:48.162Z,20.10
2018-02-23T09:02:16.339Z,19.90
2018-02-23T09:04:44.549Z,19.90
2018-02-23T09:07:12.720Z,19.80
2018-02-23T09:09:41.171Z,20.00
2018-02-23T09:12:10.198Z,20.30
2018-02-23T09:14:38.422Z,20.20
2018-02-23T09:17:06.562Z,20.20
2018-02-23T09:19:35.492Z,20.20
2018-02-23T09:22:03.670Z,20.20
2018-02-23T09:24:31.914Z,20.20
2018-02-23T09:27:00.876Z,20.10
2018-02-23T09:29:29.079Z,20.10
2018-02-23T09:31:58.181Z,20.30
2018-02-23T09:34:38.156Z,20.20
2018-02-23T09:37:06.389Z,20.20
2018-02-23T09:39:35.435Z,20.20
2018-02-23T09:42:03.745Z,20.10
2018-02-23T09:44:33.596Z,20.20
2018-02-23T09:47:01.796Z,20.10
2018-02-23T09:49:30.008Z,20.20
2018-02-23T09:51:58.404Z,20.40
2018-02-23T09:54:30.666Z,20.40
2018-02-23T09:56:59.101Z,20.40
2018-02-23T09:59:32.152Z,20.50
2018-02-23T10:02:08.834Z,20.20
2018-02-23T10:04:38.653Z,20.20
2018-02-23T10:07:07.799Z,20.40
2018-02-23T10:09:55.783Z,20.50
2018-02-23T10:12:27.592Z,20.40
2018-02-23T10:15:01.837Z,20.60
2018-02-23T10:23:26.256Z,20.50
2018-02-23T10:26:07.065Z,20.10
2018-02-23T10:28:41.682Z,20.00
2018-02-23T10:31:17.207Z,19.90
2018-02-23T10:37:06.689Z,19.70
2018-02-23T10:39:47.942Z,19.70
2018-02-23T10:42:19.473Z,20.00
2018-02-23T10:44:53.513Z,19.90
2018-02-23T10:47:22.648Z,20.20
2018-02-23T10:50:31.597Z,20.20
2018-02-23T10:53:06.285Z,20.20
2018-02-23T10:55:50.697Z,20.30
2018-02-23T10:58:23.437Z,20.20
2018-02-23T11:01:08.355Z,20.40
2018-02-23T11:07:10.988Z,20.10
2018-02-23T11:09:41.937Z,20.20
2018-02-23T11:15:04.130Z,20.30
2018-02-23T11:17:32.728Z,20.20
2018-02-23T11:23:42.455Z,20.30
2018-02-23T11:26:25.571Z,20.30
2018-02-23T11:28:53.935Z,20.30
2018-02-23T11:31:27.618Z,20.00
2018-02-23T11:37:10.269Z,19.80
2018-02-23T11:53:43.247Z,20.40
2018-02-23T11:56:11.521Z,20.40
2018-02-23T11:58:40.408Z,20.30
2018-02-23T12:01:10.614Z,19.90
2018-02-23T12:03:40.426Z,19.90
2018-02-23T12:06:15.208Z,20.00
2018-02-23T12:08:44.245Z,19.90
2018-02-23T12:11:12.558Z,20.10
2018-02-23T12:16:21.786Z,20.00
2018-02-23T12:18:50.805Z,19.90
2018-02-23T12:21:19.968Z,19.90
2018-02-23T12:23:49.389Z,20.00
2018-02-23T12:26:17.646Z,20.00
2018-02-23T12:28:46.573Z,19.80
2018-02-23T12:31:15.876Z,19.80
2018-02-23T12:33:44.114Z,19.80
2018-02-23T12:36:12.306Z,20.00
2018-02-23T12:38:40.557Z,20.10
2018-02-23T12:41:09.739Z,20.10
2018-02-23T12:43:37.944Z,19.80
2018-02-23T12:46:06.230Z,19.60
2018-02-23T12:48:34.595Z,19.60
2018-02-23T12:51:02.799Z,19.60
2018-02-23T12:53:31.900Z,19.80
2018-02-23T12:56:01.281Z,19.40
2018-02-23T12:58:29.490Z,19.60
2018-02-23T13:00:58.493Z,20.00
2018-02-23T13:03:29.702Z,19.90
2018-02-23T13:05:58.841Z,19.90
2018-02-23T13:08:28.268Z,20.40
2018-02-23T13:10:57.626Z,20.10
2018-02-23T13:13:27.344Z,20.20
2018-02-23T13:15:57.340Z,20.20
2018-02-23T13:18:25.489Z,20.20
2018-02-23T13:20:54.626Z,20.30
2018-02-23T13:23:23.990Z,20.40
2018-02-23T13:25:53.175Z,20.40
2018-02-23T13:28:26.700Z,20.40
2018-02-23T13:30:57.211Z,20.40
2018-02-23T13:33:26.556Z,19.80
2018-02-23T13:35:56.949Z,20.30
2018-02-23T13:38:25.210Z,20.30
2018-02-23T13:41:00.527Z,20.40
2018-02-23T13:43:30.912Z,20.30
2018-02-23T13:46:07.998Z,19.80
2018-02-23T13:48:36.588Z,19.80
2018-02-23T13:51:06.794Z,19.90
2018-02-23T13:53:41.410Z,19.90
2018-02-23T13:56:13.416Z,19.90
2018-02-23T13:58:42.861Z,20.10
2018-02-23T14:01:12.984Z,20.00
2018-02-23T14:03:45.148Z,20.10
2018-02-23T14:06:17.786Z,19.70
2018-02-23T14:08:48.802Z,19.50
2018-02-23T14:11:19.146Z,19.60
2018-02-23T14:13:49.978Z,19.70
2018-02-23T14:16:18.241Z,19.80
2018-02-23T14:18:46.478Z,19.90
2018-02-23T14:21:14.889Z,20.00
2018-02-23T14:23:43.305Z,20.00
2018-02-23T14:26:12.433Z,20.10
2018-02-23T14:28:41.771Z,20.00
2018-02-23T14:31:09.971Z,20.00
2018-02-23T14:33:38.131Z,20.00
2018-02-23T14:36:06.543Z,20.10
2018-02-23T14:38:34.739Z,19.80
2018-02-23T14:41:03.056Z,19.90
2018-02-23T14:43:31.925Z,20.00
2018-02-23T14:46:00.911Z,20.10
2018-02-23T14:51:29.150Z,19.90
2018-02-23T14:57:09.418Z,19.80
2018-02-23T14:59:38.542Z,19.90
2018-02-23T15:02:06.973Z,19.90
2018-02-23T15:04:35.309Z,19.80
2018-02-23T15:07:04.354Z,19.80
2018-02-23T15:09:33.970Z,19.70
2018-02-23T15:12:02.217Z,19.60
2018-02-23T15:14:31.213Z,19.60
2018-02-23T15:17:00.197Z,19.70
2018-02-23T15:19:29.212Z,19.60
2018-02-23T15:21:57.564Z,19.50
2018-02-23T15:24:25.790Z,19.50
2018-02-23T15:26:53.985Z,19.50
2018-02-23T15:29:22.182Z,19.50
2018-02-23T15:32:09.068Z,19.50
2018-02-23T15:34:38.464Z,19.50
2018-02-23T15:37:06.765Z,19.60
2018-02-23T15:39:38.992Z,19.30
2018-02-23T15:42:07.434Z,19.30
2018-02-23T15:44:35.683Z,19.40
2018-02-23T15:47:04.704Z,19.50
2018-02-23T15:49:34.513Z,19.50
2018-02-23T15:52:04.073Z,19.40
2018-02-23T15:54:34.798Z,19.40
2018-02-23T15:57:03.001Z,19.60
2018-02-23T15:59:32.015Z,19.60
2018-02-23T16:02:00.211Z,19.50
2018-02-23T16:04:32.048Z,19.40
2018-02-23T16:07:00.202Z,19.20
2018-02-23T16:09:29.125Z,19.30
2018-02-23T16:11:57.328Z,19.30
2018-02-23T16:14:25.491Z,19.50
2018-02-23T16:16:53.644Z,19.40
2018-02-23T16:19:22.644Z,19.40
2018-02-23T16:21:50.860Z,19.40
2018-02-23T16:24:22.854Z,19.40
2018-02-23T16:26:51.207Z,19.20
2018-02-23T16:29:20.194Z,19.40
2018-02-23T16:31:49.219Z,18.90
2018-02-23T16:34:18.577Z,18.90
2018-02-23T16:36:48.656Z,19.10
2018-02-23T16:39:16.880Z,19.20
2018-02-23T16:42:03.613Z,19.30
2018-02-23T16:44:32.880Z,19.00
2018-02-23T16:47:01.082Z,19.10
2018-02-23T16:49:29.273Z,19.20
2018-02-23T16:55:05.885Z,19.00
2018-02-23T16:57:39.217Z,19.00
2018-02-23T17:00:13.554Z,19.10
2018-02-23T17:02:41.925Z,19.10
2018-02-23T17:05:13.174Z,19.20
2018-02-23T17:07:42.204Z,19.30
2018-02-23T17:10:12.959Z,19.20
2018-02-23T17:12:41.350Z,19.10
2018-02-23T17:15:09.590Z,19.00
2018-02-23T17:17:38.869Z,19.10
2018-02-23T17:20:11.488Z,19.00
2018-02-23T17:22:39.679Z,19.00
2018-02-23T17:25:07.847Z,19.00
2018-02-23T17:27:36.018Z,18.90
2018-02-23T17:30:04.350Z,18.90
2018-02-23T17:32:32.524Z,18.90
2018-02-23T17:35:00.716Z,18.80
2018-02-23T17:37:28.872Z,18.70
2018-02-23T17:39:58.198Z,18.80
2018-02-23T17:42:26.453Z,18.70
2018-02-23T17:44:56.681Z,18.80
2018-02-23T17:47:24.867Z,18.70
2018-02-23T17:49:53.055Z,18.50
2018-02-23T17:52:21.280Z,18.50
2018-02-23T17:54:49.474Z,18.40
2018-02-23T17:57:18.390Z,18.50
2018-02-23T17:59:46.587Z,18.50
2018-02-23T18:02:15.580Z,18.50
2018-02-23T18:04:44.615Z,18.50
2018-02-23T18:07:12.867Z,18.50
2018-02-23T18:09:41.094Z,18.40
2018-02-23T18:12:09.364Z,18.60
2018-02-23T18:14:37.608Z,18.50
2018-02-23T18:17:05.786Z,18.50
2018-02-23T18:19:34.770Z,18.10
2018-02-23T18:22:02.915Z,18.40
2018-02-23T18:24:31.832Z,18.40
2018-02-23T18:27:00.000Z,18.40
2018-02-23T18:29:28.235Z,18.40
2018-02-23T18:31:56.399Z,18.30
2018-02-23T18:34:24.590Z,18.40
2018-02-23T18:36:53.508Z,18.40
2018-02-23T18:39:21.694Z,18.30
2018-02-23T18:41:49.874Z,18.20
2018-02-23T18:44:18.044Z,18.30
2018-02-23T18:46:46.209Z,18.20
2018-02-23T18:49:14.489Z,18.30
2018-02-23T18:51:42.697Z,18.30
2018-02-23T18:54:10.881Z,18.40
2018-02-23T18:56:39.058Z,18.30
2018-02-23T18:59:07.264Z,18.40
2018-02-23T19:01:35.416Z,18.30
2018-02-23T19:04:04.383Z,18.50
2018-02-23T19:06:32.710Z,18.40
2018-02-23T19:09:00.929Z,18.40
2018-02-23T19:11:29.149Z,18.50
2018-02-23T19:13:57.312Z,18.40
2018-02-23T19:16:27.338Z,18.40
2018-02-23T19:18:56.330Z,18.40
2018-02-23T19:21:24.632Z,18.40
2018-02-23T19:23:52.958Z,18.40
2018-02-23T19:26:21.923Z,18.50
2018-02-23T19:28:50.079Z,18.50
2018-02-23T19:31:18.294Z,18.50
2018-02-23T19:33:46.455Z,18.50
2018-02-23T19:36:14.630Z,18.50
2018-02-23T19:38:42.798Z,18.50
2018-02-23T19:41:11.007Z,18.50
2018-02-23T19:43:39.261Z,18.50
2018-02-23T19:46:08.115Z,18.40
2018-02-23T19:48:36.308Z,18.50
2018-02-23T19:51:04.475Z,18.50
2018-02-23T19:53:32.660Z,18.50
2018-02-23T19:56:00.831Z,18.60
2018-02-23T19:58:29.045Z,18.50
2018-02-23T20:00:57.202Z,18.50
2018-02-23T20:03:26.135Z,18.50
2018-02-23T20:05:55.131Z,18.60
2018-02-23T20:08:23.286Z,18.60
2018-02-23T20:10:51.451Z,18.60
2018-02-23T20:13:19.611Z,18.60
2018-02-23T20:15:48.556Z,18.60
2018-02-23T20:18:16.730Z,18.60
2018-02-23T20:20:44.920Z,18.60
2018-02-23T20:23:13.158Z,18.60
2018-02-23T20:25:41.395Z,18.60
2018-02-23T20:28:10.362Z,18.70
2018-02-23T20:30:38.565Z,18.60
2018-02-23T20:33:06.735Z,18.70
2018-02-23T20:35:34.895Z,18.70
2018-02-23T20:38:03.862Z,19.30
2018-02-23T20:40:32.134Z,18.80
2018-02-23T20:43:00.475Z,18.70
2018-02-23T20:45:29.462Z,18.70
2018-02-23T20:47:57.595Z,18.70
2018-02-23T20:50:25.788Z,19.00
2018-02-23T20:52:53.981Z,18.90
2018-02-23T20:55:22.201Z,18.80
2018-02-23T20:57:50.666Z,18.90
2018-02-23T21:00:18.900Z,18.90
2018-02-23T21:02:47.063Z,18.80
2018-02-23T21:05:16.011Z,18.80
2018-02-23T21:07:44.227Z,18.80
2018-02-23T21:10:13.327Z,18.80
2018-02-23T21:12:41.543Z,18.90
2018-02-23T21:15:09.762Z,18.80
2018-02-23T21:17:38.686Z,18.90
2018-02-23T21:20:07.654Z,18.90
2018-02-23T21:22:36.588Z,18.90
2018-02-23T21:25:04.760Z,18.80
2018-02-23T21:27:32.929Z,18.90
2018-02-23T21:30:01.121Z,18.90
2018-02-23T21:32:29.298Z,18.90
2018-02-23T21:34:57.437Z,18.90
2018-02-23T21:37:25.605Z,18.90
2018-02-23T21:39:53.764Z,19.00
2018-02-23T21:42:21.937Z,18.90
2018-02-23T21:44:50.099Z,18.90
2018-02-23T21:47:18.283Z,18.90
2018-02-23T21:49:46.680Z,18.90
2018-02-23T21:52:15.772Z,18.90
2018-02-23T21:54:43.978Z,18.90
2018-02-23T21:57:12.153Z,18.90
2018-02-23T21:59:40.369Z,18.90
2018-02-23T22:02:08.550Z,18.90
2018-02-23T22:04:36.718Z,18.90
2018-02-23T22:07:04.886Z,18.90
2018-02-23T22:09:33.022Z,19.40
2018-02-23T22:12:02.269Z,18.90
2018-02-23T22:14:30.437Z,19.00
2018-02-23T22:16:58.591Z,19.00
2018-02-23T22:19:27.521Z,19.10
2018-02-23T22:21:55.673Z,19.00
2018-02-23T22:24:23.916Z,19.10
2018-02-23T22:26:53.711Z,19.10
2018-02-23T22:29:21.890Z,19.10
2018-02-23T22:31:50.040Z,19.10
2018-02-23T22:34:18.202Z,19.10
2018-02-23T22:36:47.139Z,19.20
2018-02-23T22:39:16.074Z,19.70
2018-02-23T22:41:44.264Z,19.20
2018-02-23T22:44:12.431Z,19.20
2018-02-23T22:46:40.621Z,19.20
2018-02-23T22:49:08.791Z,19.20
2018-02-23T22:51:40.803Z,19.70
2018-02-23T22:54:09.031Z,19.20
2018-02-23T22:56:43.252Z,19.30
2018-02-23T22:59:11.433Z,19.30
2018-02-23T23:01:39.604Z,19.30
2018-02-23T23:04:07.776Z,19.30
2018-02-23T23:06:35.991Z,19.30
2018-02-23T23:09:04.144Z,19.30
2018-02-23T23:11:33.068Z,19.20
2018-02-23T23:14:01.211Z,19.10
2018-02-23T23:16:30.138Z,19.30
2018-02-23T23:18:58.302Z,19.20
2018-02-23T23:21:26.441Z,19.20
2018-02-23T23:23:55.385Z,19.30
2018-02-23T23:26:23.859Z,19.10
2018-02-23T23:28:52.054Z,19.20
2018-02-23T23:31:24.817Z,19.20
2018-02-23T23:33:52.997Z,19.20
2018-02-23T23:36:21.200Z,19.30
2018-02-23T23:38:49.370Z,19.30
2018-02-23T23:41:17.548Z,19.30
2018-02-23T23:43:46.734Z,19.30
2018-02-23T23:46:15.068Z,19.30
2018-02-23T23:48:43.282Z,19.30
2018-02-23T23:51:11.458Z,19.30
2018-02-23T23:53:39.716Z,19.30
2018-02-23T23:56:07.901Z,19.30
2018-02-23T23:58:36.096Z,19.30
